createdAt,value
2023-04-01T00:00:53.856Z,20.50
2023-04-01T00:03:23.680Z,20.30
2023-04-01T00:05:52.157Z,19.70
2023-04-01T00:08:20.359Z,17.30
2023-04-01T00:10:48.407Z,19.00
2023-04-01T00:13:16.664Z,18.90
2023-04-01T00:15:45.478Z,19.50
2023-04-01T00:18:14.362Z,17.60
2023-04-01T00:20:46.114Z,25.40
2023-04-01T00:23:14.672Z,25.70
2023-04-01T00:25:42.891Z,25.10
2023-04-01T00:28:11.172Z,24.60
2023-04-01T00:30:39.260Z,17.20
2023-04-01T00:33:07.303Z,23.30
2023-04-01T00:35:35.790Z,25.10
2023-04-01T00:38:04.197Z,19.20
2023-04-01T00:40:34.839Z,18.90
2023-04-01T00:43:10.718Z,22.50
2023-04-01T00:45:41.290Z,19.50
2023-04-01T00:48:13.795Z,19.90
2023-04-01T00:50:45.464Z,20.10
2023-04-01T00:53:14.745Z,22.80
2023-04-01T00:55:50.346Z,19.60
2023-04-01T00:58:22.232Z,18.90
2023-04-01T01:00:51.428Z,18.70
2023-04-01T01:03:20.488Z,26.40
2023-04-01T01:06:08.665Z,21.30
2023-04-01T01:08:50.307Z,22.90
2023-04-01T01:11:37.091Z,18.00
2023-04-01T01:14:22.740Z,25.10
2023-04-01T01:17:00.473Z,19.50
2023-04-01T01:19:52.836Z,24.40
2023-04-01T01:22:50.352Z,22.30
2023-04-01T01:25:41.644Z,30.30
2023-04-01T01:28:38.643Z,31.80
2023-04-01T01:31:16.497Z,24.30
2023-04-01T01:34:06.988Z,23.50
2023-04-01T01:36:38.164Z,21.60
2023-04-01T01:39:10.657Z,23.20
2023-04-01T01:41:43.076Z,26.40
2023-04-01T01:44:14.962Z,36.00
2023-04-01T01:46:44.659Z,24.10
2023-04-01T01:49:15.962Z,19.40
2023-04-01T01:51:43.996Z,21.40
2023-04-01T01:54:14.926Z,22.80
2023-04-01T01:56:45.910Z,21.50
2023-04-01T01:59:16.124Z,18.10
2023-04-01T02:01:50.245Z,20.50
2023-04-01T02:04:20.554Z,22.10
2023-04-01T02:06:54.221Z,25.30
2023-04-01T02:09:22.760Z,22.60
2023-04-01T02:11:56.042Z,23.70
2023-04-01T02:14:26.907Z,22.70
2023-04-01T02:16:58.760Z,23.00
2023-04-01T02:19:32.281Z,31.70
2023-04-01T02:22:04.741Z,24.40
2023-04-01T02:24:36.182Z,25.10
2023-04-01T02:27:05.123Z,25.00
2023-04-01T02:29:36.113Z,26.70
2023-04-01T02:32:09.906Z,26.60
2023-04-01T02:34:38.033Z,26.60
2023-04-01T02:37:06.017Z,30.50
2023-04-01T02:39:34.064Z,26.50
2023-04-01T02:42:02.138Z,28.20
2023-04-01T02:44:30.808Z,27.40
2023-04-01T02:47:00.548Z,26.90
2023-04-01T02:49:28.636Z,26.50
2023-04-01T02:51:56.577Z,28.30
2023-04-01T02:54:24.509Z,25.40
2023-04-01T02:56:52.802Z,25.10
2023-04-01T02:59:20.844Z,24.00
2023-04-01T03:01:48.826Z,23.40
2023-04-01T03:04:16.902Z,26.30
2023-04-01T03:06:45.014Z,29.60
2023-04-01T03:09:13.006Z,24.70
2023-04-01T03:11:41.370Z,27.30
2023-04-01T03:14:09.341Z,25.90
2023-04-01T03:16:37.393Z,31.20
2023-04-01T03:19:05.458Z,32.70
2023-04-01T03:21:33.671Z,31.30
2023-04-01T03:24:02.534Z,23.30
2023-04-01T03:26:30.800Z,25.30
2023-04-01T03:28:59.546Z,26.90
2023-04-01T03:31:27.642Z,26.80
2023-04-01T03:33:56.749Z,27.00
2023-04-01T03:36:24.814Z,23.90
2023-04-01T03:38:53.018Z,24.20
2023-04-01T03:41:23.979Z,24.40
2023-04-01T03:43:52.012Z,21.50
2023-04-01T03:46:20.651Z,23.00
2023-04-01T03:48:48.732Z,24.70
2023-04-01T03:51:16.647Z,21.30
2023-04-01T03:53:45.142Z,24.40
2023-04-01T03:56:13.812Z,24.00
2023-04-01T03:58:42.639Z,24.30
2023-04-01T04:01:20.439Z,22.30
2023-04-01T04:03:50.172Z,18.60
2023-04-01T04:06:19.832Z,27.50
2023-04-01T04:08:48.904Z,47.00
2023-04-01T04:11:17.694Z,35.60
2023-04-01T04:13:45.858Z,24.90
2023-04-01T04:16:14.446Z,23.90
2023-04-01T04:18:45.837Z,21.10
2023-04-01T04:21:15.340Z,22.50
2023-04-01T04:23:44.113Z,22.10
2023-04-01T04:26:14.353Z,22.00
2023-04-01T04:28:43.155Z,20.30
2023-04-01T04:31:11.282Z,20.20
2023-04-01T04:33:42.814Z,18.20
2023-04-01T04:36:11.023Z,20.70
2023-04-01T04:38:39.109Z,18.70
2023-04-01T04:41:12.139Z,19.00
2023-04-01T04:43:40.712Z,19.30
2023-04-01T04:46:08.973Z,20.90
2023-04-01T04:48:37.286Z,17.10
2023-04-01T04:51:05.763Z,20.00
2023-04-01T04:53:34.161Z,19.70
2023-04-01T04:56:02.326Z,17.90
2023-04-01T04:58:40.327Z,16.80
2023-04-01T05:01:11.325Z,25.50
2023-04-01T05:03:40.574Z,16.60
2023-04-01T05:06:11.095Z,14.90
2023-04-01T05:08:39.832Z,15.00
2023-04-01T05:11:13.848Z,16.60
2023-04-01T05:13:43.620Z,17.30
2023-04-01T05:16:12.586Z,13.30
2023-04-01T05:18:41.550Z,15.40
2023-04-01T05:21:11.564Z,16.70
2023-04-01T05:23:39.878Z,14.40
2023-04-01T05:26:10.601Z,14.20
2023-04-01T05:28:39.130Z,12.90
2023-04-01T05:31:08.518Z,13.00
2023-04-01T05:33:40.239Z,12.70
2023-04-01T05:36:11.136Z,11.60
2023-04-01T05:38:40.096Z,14.40
2023-04-01T05:41:10.268Z,13.10
2023-04-01T05:43:42.297Z,11.30
2023-04-01T05:46:29.503Z,13.50
2023-04-01T05:49:21.869Z,11.40
2023-04-01T05:51:51.836Z,10.30
2023-04-01T05:54:20.491Z,12.20
2023-04-01T05:56:49.091Z,16.60
2023-04-01T05:59:19.216Z,10.70
2023-04-01T06:01:47.913Z,8.70
2023-04-01T06:04:17.795Z,10.80
2023-04-01T06:06:46.670Z,11.20
2023-04-01T06:09:31.976Z,10.30
2023-04-01T06:12:17.719Z,10.80
2023-04-01T06:15:27.605Z,10.50
2023-04-01T06:18:54.086Z,13.00
2023-04-01T06:22:15.110Z,10.50
2023-04-01T06:25:13.892Z,8.30
2023-04-01T06:28:01.817Z,7.30
2023-04-01T06:30:41.156Z,14.70
2023-04-01T06:33:33.052Z,11.70
2023-04-01T06:48:08.386Z,6.90
2023-04-01T06:51:04.763Z,5.50
2023-04-01T06:54:17.108Z,5.30
2023-04-01T06:57:29.951Z,9.00
2023-04-01T07:00:07.825Z,5.70
2023-04-01T07:02:45.370Z,14.80
2023-04-01T07:05:17.768Z,7.30
2023-04-01T07:10:48.294Z,4.50
2023-04-01T07:13:51.151Z,5.30
2023-04-01T07:16:28.375Z,7.50
2023-04-01T07:19:04.346Z,5.30
2023-04-01T07:21:52.567Z,5.60
2023-04-01T07:24:34.604Z,6.20
2023-04-01T07:27:13.874Z,8.70
2023-04-01T07:29:45.902Z,7.90
2023-04-01T07:32:26.339Z,8.70
2023-04-01T07:35:11.596Z,7.80
2023-04-01T07:37:55.922Z,9.00
2023-04-01T07:40:39.903Z,9.50
2023-04-01T07:44:07.697Z,10.50
2023-04-01T07:51:10.671Z,15.80
2023-04-01T07:54:37.764Z,17.00
2023-04-01T08:01:59.088Z,20.50
2023-04-01T08:09:23.299Z,16.30
2023-04-01T08:17:05.146Z,16.20
2023-04-01T08:19:57.633Z,16.90
2023-04-01T08:23:20.600Z,14.70
2023-04-01T08:25:58.982Z,14.70
2023-04-01T08:28:38.574Z,17.40
2023-04-01T08:31:19.077Z,16.50
2023-04-01T08:33:56.029Z,13.30
2023-04-01T08:36:32.528Z,14.30
2023-04-01T08:39:45.525Z,13.50
2023-04-01T08:42:49.424Z,12.40
2023-04-01T08:45:57.241Z,9.60
2023-04-01T08:48:53.285Z,12.50
2023-04-01T08:51:44.507Z,8.60
2023-04-01T08:54:47.051Z,7.30
2023-04-01T08:57:34.300Z,8.60
2023-04-01T09:00:50.567Z,9.50
2023-04-01T09:04:01.006Z,8.60
2023-04-01T09:06:43.398Z,8.30
2023-04-01T09:09:46.536Z,12.20
2023-04-01T09:12:38.719Z,13.00
2023-04-01T09:15:28.249Z,12.80
2023-04-01T09:18:49.507Z,10.10
2023-04-01T09:21:53.485Z,15.40
2023-04-01T09:24:51.822Z,7.20
2023-04-01T09:27:32.860Z,7.40
2023-04-01T09:30:37.442Z,10.00
2023-04-01T09:33:48.891Z,7.00
2023-04-01T09:36:38.366Z,5.90
2023-04-01T09:39:37.847Z,8.40
2023-04-01T09:42:29.980Z,6.20
2023-04-01T09:45:26.052Z,6.00
2023-04-01T09:50:44.539Z,5.80
2023-04-01T09:53:28.955Z,8.80
2023-04-01T09:56:42.901Z,5.70
2023-04-01T09:59:34.523Z,13.20
2023-04-01T10:03:06.086Z,5.90
2023-04-01T10:06:03.605Z,6.70
2023-04-01T10:08:52.891Z,9.00
2023-04-01T10:11:47.157Z,6.60
2023-04-01T10:14:44.541Z,8.10
2023-04-01T10:17:50.945Z,6.60
2023-04-01T10:20:56.681Z,7.20
2023-04-01T10:23:40.997Z,6.10
2023-04-01T10:26:55.093Z,6.70
2023-04-01T10:30:20.688Z,7.20
2023-04-01T10:33:40.495Z,5.50
2023-04-01T10:36:32.727Z,7.00
2023-04-01T10:39:35.106Z,5.50
2023-04-01T10:43:05.827Z,5.30
2023-04-01T10:46:18.908Z,6.80
2023-04-01T10:49:24.534Z,6.20
2023-04-01T10:52:20.540Z,7.50
2023-04-01T10:55:34.582Z,7.70
2023-04-01T10:58:51.158Z,5.60
2023-04-01T11:05:36.441Z,5.50
2023-04-01T11:08:59.595Z,8.20
2023-04-01T11:11:59.905Z,8.70
2023-04-01T11:15:07.913Z,8.80
2023-04-01T11:18:10.901Z,8.80
2023-04-01T11:21:15.958Z,8.00
2023-04-01T11:24:13.366Z,11.90
2023-04-01T11:27:00.242Z,7.40
2023-04-01T11:30:08.033Z,7.00
2023-04-01T11:32:47.191Z,6.20
2023-04-01T11:35:36.290Z,5.70
2023-04-01T11:38:24.740Z,5.10
2023-04-01T11:41:01.638Z,8.40
2023-04-01T11:44:21.184Z,3.40
2023-04-01T11:48:01.320Z,3.70
2023-04-01T11:50:49.324Z,3.50
2023-04-01T11:53:37.470Z,5.10
2023-04-01T11:56:20.569Z,4.10
2023-04-01T11:59:27.579Z,3.40
2023-04-01T12:02:28.954Z,4.20
2023-04-01T12:05:10.219Z,2.50
2023-04-01T12:08:02.893Z,2.20
2023-04-01T12:10:40.900Z,1.90
2023-04-01T12:13:23.273Z,1.60
2023-04-01T12:16:09.938Z,2.30
2023-04-01T12:18:45.341Z,2.70
2023-04-01T12:21:28.197Z,2.50
2023-04-01T12:24:27.641Z,1.80
2023-04-01T12:27:14.603Z,1.60
2023-04-01T12:30:15.838Z,1.40
2023-04-01T12:32:57.544Z,2.10
2023-04-01T12:35:32.849Z,2.10
2023-04-01T12:38:23.751Z,1.90
2023-04-01T12:41:05.608Z,2.40
2023-04-01T12:44:09.252Z,2.30
2023-04-01T12:47:02.132Z,3.90
2023-04-01T12:49:47.926Z,2.50
2023-04-01T12:52:30.323Z,4.30
2023-04-01T12:55:25.534Z,2.00
2023-04-01T12:58:28.416Z,9.40
2023-04-01T13:01:35.193Z,2.20
2023-04-01T13:04:32.446Z,2.00
2023-04-01T13:07:21.559Z,3.10
2023-04-01T13:10:10.170Z,2.40
2023-04-01T13:13:01.213Z,2.50
2023-04-01T13:15:39.832Z,2.60
2023-04-01T13:18:30.424Z,5.80
2023-04-01T13:21:27.791Z,6.30
2023-04-01T13:24:14.185Z,7.70
2023-04-01T13:27:03.785Z,5.80
2023-04-01T13:29:38.413Z,4.40
2023-04-01T13:32:42.476Z,5.60
2023-04-01T13:35:26.143Z,6.50
2023-04-01T13:38:18.093Z,9.90
2023-04-01T13:41:03.699Z,5.40
2023-04-01T13:43:39.820Z,5.60
2023-04-01T13:46:26.014Z,4.10
2023-04-01T13:49:30.891Z,3.40
2023-04-01T13:52:16.002Z,4.70
2023-04-01T13:55:22.570Z,4.10
2023-04-01T13:58:20.800Z,4.20
2023-04-01T14:01:07.748Z,3.30
2023-04-01T14:03:52.767Z,3.00
2023-04-01T14:06:43.179Z,3.70
2023-04-01T14:10:01.265Z,5.20
2023-04-01T14:12:44.856Z,4.50
2023-04-01T14:15:40.079Z,5.80
2023-04-01T14:18:34.470Z,3.20
2023-04-01T14:21:32.100Z,14.70
2023-04-01T14:24:17.626Z,8.20
2023-04-01T14:27:16.004Z,4.30
2023-04-01T14:30:00.666Z,5.20
2023-04-01T14:32:45.964Z,4.50
2023-04-01T14:35:45.157Z,3.70
2023-04-01T14:38:52.634Z,5.30
2023-04-01T14:41:46.576Z,4.60
2023-04-01T14:44:47.931Z,4.00
2023-04-01T14:47:44.685Z,3.90
2023-04-01T14:50:19.373Z,4.50
2023-04-01T14:52:59.058Z,4.60
2023-04-01T14:55:45.319Z,2.70
2023-04-01T14:58:19.524Z,4.10
2023-04-01T15:01:02.922Z,4.50
2023-04-01T15:03:41.799Z,4.60
2023-04-01T15:06:47.998Z,4.90
2023-04-01T15:09:29.510Z,3.90
2023-04-01T15:12:11.764Z,7.60
2023-04-01T15:14:50.389Z,4.90
2023-04-01T15:17:36.078Z,4.30
2023-04-01T15:20:27.888Z,3.10
2023-04-01T15:23:23.232Z,4.00
2023-04-01T15:26:22.252Z,5.10
2023-04-01T15:29:28.457Z,7.50
2023-04-01T15:32:04.563Z,4.40
2023-04-01T15:34:46.246Z,3.70
2023-04-01T15:37:27.629Z,4.20
2023-04-01T15:40:15.505Z,3.40
2023-04-01T15:43:05.551Z,3.60
2023-04-01T15:45:52.036Z,3.60
2023-04-01T15:48:45.785Z,3.20
2023-04-01T15:51:36.156Z,7.90
2023-04-01T15:54:59.705Z,4.20
2023-04-01T15:57:38.078Z,4.20
2023-04-01T16:00:30.968Z,2.70
2023-04-01T16:03:29.467Z,2.70
2023-04-01T16:06:28.020Z,3.80
2023-04-01T16:09:24.291Z,8.70
2023-04-01T16:12:07.627Z,6.60
2023-04-01T16:14:53.809Z,4.20
2023-04-01T16:17:45.670Z,4.80
2023-04-01T16:20:43.407Z,6.20
2023-04-01T16:23:21.261Z,2.90
2023-04-01T16:26:01.776Z,7.00
2023-04-01T16:28:50.710Z,5.90
2023-04-01T16:31:35.842Z,3.20
2023-04-01T16:36:49.091Z,3.80
2023-04-01T16:39:41.916Z,2.80
2023-04-01T16:45:23.567Z,3.30
2023-04-01T16:48:00.596Z,4.60
2023-04-01T16:50:47.779Z,4.00
2023-04-01T16:53:24.652Z,3.40
2023-04-01T16:56:06.530Z,3.70
2023-04-01T16:58:42.002Z,2.90
2023-04-01T17:01:18.551Z,3.00
2023-04-01T17:03:53.867Z,5.10
2023-04-01T17:06:33.918Z,3.50
2023-04-01T17:09:22.299Z,7.30
2023-04-01T17:12:07.828Z,3.90
2023-04-01T17:17:35.436Z,4.60
2023-04-01T17:20:28.965Z,5.70
2023-04-01T17:23:07.920Z,5.60
2023-04-01T17:25:57.084Z,7.90
2023-04-01T17:28:42.692Z,8.00
2023-04-01T17:34:18.487Z,6.30
2023-04-01T17:37:10.504Z,7.00
2023-04-01T17:40:01.704Z,7.80
2023-04-01T17:42:45.044Z,8.30
2023-04-01T17:45:27.015Z,6.50
2023-04-01T17:48:06.195Z,7.80
2023-04-01T17:50:55.006Z,10.00
2023-04-01T17:53:37.905Z,6.50
2023-04-01T17:56:24.190Z,8.20
2023-04-01T17:59:02.429Z,8.20
2023-04-01T18:01:47.878Z,12.00
2023-04-01T18:04:50.410Z,9.00
2023-04-01T18:08:05.348Z,8.50
2023-04-01T18:10:44.307Z,9.00
2023-04-01T18:13:53.816Z,8.70
2023-04-01T18:16:36.349Z,8.80
2023-04-01T18:19:20.630Z,7.70
2023-04-01T18:21:56.355Z,8.90
2023-04-01T18:24:35.731Z,10.10
2023-04-01T18:27:23.080Z,14.30
2023-04-01T18:29:59.122Z,10.60
2023-04-01T18:32:37.943Z,12.20
2023-04-01T18:35:29.039Z,8.70
2023-04-01T18:38:08.651Z,9.40
2023-04-01T18:40:44.769Z,10.30
2023-04-01T18:43:23.621Z,15.80
2023-04-01T18:46:04.130Z,13.40
2023-04-01T18:48:53.476Z,11.70
2023-04-01T18:51:40.660Z,10.20
2023-04-01T18:54:18.111Z,10.80
2023-04-01T18:56:49.933Z,9.30
2023-04-01T18:59:29.847Z,11.90
2023-04-01T19:02:12.067Z,8.70
2023-04-01T19:04:51.519Z,13.50
2023-04-01T19:07:44.497Z,12.70
2023-04-01T19:10:29.043Z,10.90
2023-04-01T19:13:11.821Z,14.30
2023-04-01T19:15:52.423Z,9.40
2023-04-01T19:19:04.850Z,9.90
2023-04-01T19:21:39.455Z,9.00
2023-04-01T19:24:38.413Z,9.50
2023-04-01T19:27:18.040Z,8.00
2023-04-01T19:30:04.675Z,9.20
2023-04-01T19:32:46.458Z,10.40
2023-04-01T19:35:27.189Z,9.00
2023-04-01T19:38:06.344Z,8.60
2023-04-01T19:40:47.444Z,7.70
2023-04-01T19:43:34.374Z,7.20
2023-04-01T19:46:13.091Z,15.30
2023-04-01T19:48:53.672Z,7.50
2023-04-01T19:51:33.847Z,8.50
2023-04-01T19:54:13.491Z,10.90
2023-04-01T19:56:49.881Z,8.40
2023-04-01T19:59:27.378Z,10.70
2023-04-01T20:02:03.941Z,13.70
2023-04-01T20:04:43.009Z,7.80
2023-04-01T20:07:21.370Z,19.10
2023-04-01T20:10:00.961Z,41.50
2023-04-01T20:12:46.046Z,16.10
2023-04-01T20:15:33.974Z,12.60
2023-04-01T20:18:14.654Z,9.60
2023-04-01T20:20:58.713Z,13.50
2023-04-01T20:23:41.625Z,7.70
2023-04-01T20:26:14.043Z,9.80
2023-04-01T20:29:00.123Z,11.90
2023-04-01T20:31:36.432Z,13.90
2023-04-01T20:34:25.553Z,16.60
2023-04-01T20:37:12.947Z,13.70
2023-04-01T20:40:09.059Z,10.80
2023-04-01T20:42:55.409Z,8.90
2023-04-01T20:45:36.619Z,12.40
2023-04-01T20:48:26.475Z,8.70
2023-04-01T20:51:01.552Z,7.90
2023-04-01T20:53:39.776Z,10.60
2023-04-01T20:56:26.676Z,8.70
2023-04-01T20:59:05.245Z,8.90
2023-04-01T21:01:46.147Z,7.80
2023-04-01T21:04:30.905Z,12.70
2023-04-01T21:07:30.448Z,7.60
2023-04-01T21:10:16.631Z,7.70
2023-04-01T21:12:54.898Z,7.10
2023-04-01T21:15:47.378Z,8.40
2023-04-01T21:18:37.723Z,8.90
2023-04-01T21:21:29.036Z,7.40
2023-04-01T21:24:29.103Z,8.00
2023-04-01T21:27:09.617Z,6.80
2023-04-01T21:29:58.823Z,5.90
2023-04-01T21:32:44.005Z,15.00
2023-04-01T21:35:28.150Z,7.10
2023-04-01T21:38:28.571Z,7.50
2023-04-01T21:41:29.669Z,5.60
2023-04-01T21:44:37.022Z,7.20
2023-04-01T21:47:52.622Z,8.00
2023-04-01T21:51:05.469Z,7.30
2023-04-01T21:54:24.184Z,6.50
2023-04-01T21:57:24.904Z,8.90
2023-04-01T22:00:17.514Z,9.00
2023-04-01T22:03:30.743Z,7.60
2023-04-01T22:06:24.056Z,7.20
2023-04-01T22:09:07.698Z,6.10
2023-04-01T22:11:55.305Z,6.90
2023-04-01T22:14:36.013Z,18.50
2023-04-01T22:17:20.149Z,9.10
2023-04-01T22:20:09.914Z,10.20
2023-04-01T22:23:02.017Z,7.60
2023-04-01T22:25:43.243Z,9.70
2023-04-01T22:28:21.758Z,9.20
2023-04-01T22:30:54.794Z,8.30
2023-04-01T22:33:35.423Z,10.10
2023-04-01T22:36:20.005Z,9.50
2023-04-01T22:39:04.435Z,13.80
2023-04-01T22:41:52.947Z,8.80
2023-04-01T22:44:37.961Z,9.10
2023-04-01T22:47:16.308Z,11.90
2023-04-01T22:49:51.704Z,7.00
2023-04-01T22:52:32.941Z,8.10
2023-04-01T22:55:10.444Z,8.90
2023-04-01T22:57:46.931Z,6.80
2023-04-01T23:00:23.536Z,9.50
2023-04-01T23:03:09.111Z,7.30
2023-04-01T23:05:48.233Z,10.30
2023-04-01T23:08:50.148Z,13.10
2023-04-01T23:11:26.871Z,31.90
2023-04-01T23:14:27.637Z,9.50
2023-04-01T23:17:04.532Z,8.40
2023-04-01T23:19:40.023Z,6.90
2023-04-01T23:22:23.325Z,7.80
2023-04-01T23:25:00.573Z,7.30
2023-04-01T23:27:38.260Z,7.90
2023-04-01T23:30:51.480Z,10.10
2023-04-01T23:33:29.459Z,6.70
2023-04-01T23:36:06.409Z,7.20
2023-04-01T23:38:40.555Z,7.90
2023-04-01T23:41:19.942Z,8.00
2023-04-01T23:43:57.690Z,8.50
2023-04-01T23:46:30.664Z,7.60
2023-04-01T23:49:02.819Z,9.20
2023-04-01T23:51:48.544Z,7.90
2023-04-01T23:56:54.339Z,10.10
2023-04-01T23:59:30.072Z,7.90
